Capitol Logistics 7429

Operating for MZN



KTPA
Tampa International Airport
Tampa, Florida
KBWI
Baltimore/Washington International Thurgood Marshall Airport
Baltimore, Maryland

Activity Log

Date Flight Route Aircraft Duration
No Flights Yet

Route Details

Aircraft Information
Primary: Boeing 767-300BDSF
Backup: Boeing 757-200SF
Route Data
Distance: 734nm
Duration: 2h 08m
Recm'd Route: BAYPO8 CAMJO Q99 POLYY TUBAS J52 RDU THHMP RAVNN6
Origin Wx: KTPA 180153Z 21009KT 9SM SCT011 25/22 A2989 RMK AO2 SLP119 T02500217
Dest. Wx: KBWI 180154Z 28004KT 10SM FEW110 SCT200 11/03 A2986 RMK AO2 SLP109 T01110033
Notes: